Time;durP1;ratioP1;P1;durP2;ratioP2;P2;SDS_P1;SDS_P2;PMS_P1;PMS_P2;Temp;Humidity;BMP_temperature;BMP_pressure;BME280_temperature;BME280_humidity;BME280_pressure;Samples;Min_cycle;Max_cycle;Signal;HPM_P1;HPM_P2
2022/06/10 00:01:36;;;;;;;6.03;3.20;;;;;;;20.15;77.01;99047.87;4465475;32;33894;-86
2022/06/10 00:04:05;;;;;;;5.65;3.50;;;;;;;19.82;78.79;99038.53;4478571;32;33320;-86
2022/06/10 00:06:36;;;;;;;6.47;3.90;;;;;;;19.93;78.53;99045.75;4478898;32;34483;-86
2022/06/10 00:09:05;;;;;;;8.05;4.28;;;;;;;19.98;77.36;99043.66;4479950;32;34093;-86
2022/06/10 00:11:34;;;;;;;7.15;4.03;;;;;;;19.93;77.73;99048.37;4483363;32;33862;-86
2022/06/10 00:14:04;;;;;;;6.55;4.28;;;;;;;19.85;77.60;99054.13;4478769;32;33708;-86
2022/06/10 00:16:33;;;;;;;7.40;3.30;;;;;;;19.83;77.79;99050.72;4479389;32;34065;-86
2022/06/10 00:19:02;;;;;;;7.10;3.62;;;;;;;19.77;77.95;99046.69;4478725;32;34044;-86
2022/06/10 00:21:31;;;;;;;7.47;3.45;;;;;;;19.67;78.30;99044.69;4478542;32;34281;-87
2022/06/10 00:24:00;;;;;;;5.40;3.05;;;;;;;19.45;79.10;99043.38;4478215;32;33306;-86
2022/06/10 00:26:28;;;;;;;6.10;3.87;;;;;;;19.39;79.71;99054.25;4463163;32;33849;-86
2022/06/10 00:29:00;;;;;;;7.10;4.45;;;;;;;19.38;79.40;99069.19;4463053;32;34068;-86
2022/06/10 00:31:30;;;;;;;6.65;3.30;;;;;;;19.24;80.42;99069.16;4464730;32;34274;-86
2022/06/10 00:33:59;;;;;;;5.93;3.40;;;;;;;19.51;79.14;99064.03;4477167;32;33312;-86
2022/06/10 00:36:27;;;;;;;5.15;3.10;;;;;;;19.65;78.11;99067.62;4483982;32;33921;-86
2022/06/10 00:38:57;;;;;;;4.43;2.58;;;;;;;19.75;77.81;99066.16;4478711;32;33941;-86
2022/06/10 00:41:25;;;;;;;5.50;3.10;;;;;;;19.72;78.06;99069.81;4475158;32;33860;-86
2022/06/10 00:43:54;;;;;;;6.87;3.78;;;;;;;19.99;76.35;99076.97;4462922;32;33861;-86
2022/06/10 00:46:32;;;;;;;5.72;3.50;;;;;;;19.82;77.08;99076.22;4463062;32;33838;-86
2022/06/10 00:49:12;;;;;;;7.57;3.85;;;;;;;19.71;77.49;99076.00;4465173;32;34049;-85
2022/06/10 00:51:45;;;;;;;7.00;3.78;;;;;;;19.79;76.97;99083.47;4468877;32;33680;-86
2022/06/10 00:54:18;;;;;;;6.30;3.60;;;;;;;19.75;76.93;99074.91;4474102;32;32912;-86
2022/06/10 00:56:52;;;;;;;6.45;3.37;;;;;;;20.09;75.36;99077.25;4475188;32;33858;-86
2022/06/10 00:59:23;;;;;;;6.18;3.90;;;;;;;19.96;75.92;99075.38;4478474;32;33659;-87
2022/06/10 01:01:58;;;;;;;5.40;3.12;;;;;;;20.00;75.90;99070.75;4478376;32;34704;-86
2022/06/10 01:04:28;;;;;;;7.28;3.80;;;;;;;19.88;76.14;99067.09;4478315;32;33481;-86
2022/06/10 01:06:58;;;;;;;6.72;3.60;;;;;;;19.55;77.60;99069.97;4483639;32;33739;-86
2022/06/10 01:09:28;;;;;;;6.57;3.62;;;;;;;19.56;77.28;99061.97;4479250;32;34738;-86
2022/06/10 01:12:24;;;;;;;5.90;3.75;;;;;;;19.40;78.42;99061.19;4478462;32;33044;-86
2022/06/10 01:15:01;;;;;;;6.37;3.53;;;;;;;19.26;79.12;99071.72;4478078;32;33863;-86
2022/06/10 01:17:43;;;;;;;7.65;4.32;;;;;;;19.48;78.00;99079.16;4478553;32;33753;-86
2022/06/10 01:20:19;;;;;;;9.07;5.03;;;;;;;19.31;78.53;99078.37;4478489;32;34053;-86
2022/06/10 01:23:14;;;;;;;7.05;4.10;;;;;;;19.37;78.39;99078.00;4475955;32;33992;-86
2022/06/10 01:27:47;;;;;;;6.32;3.55;;;;;;;19.26;78.92;99088.31;4474794;32;33782;-86
2022/06/10 01:29:46;;;;;;;6.35;4.12;;;;;;;19.44;78.11;99083.75;4413730;32;33836;-86
2022/06/10 01:32:22;;;;;;;6.40;4.30;;;;;;;19.27;78.79;99089.16;4416721;32;33660;-86
2022/06/10 01:34:55;;;;;;;7.53;4.95;;;;;;;19.23;78.60;99093.75;4434510;32;34360;-86
2022/06/10 01:37:38;;;;;;;8.15;3.97;;;;;;;19.45;78.04;99085.47;4434064;32;33276;-86
2022/06/10 01:40:15;;;;;;;7.30;4.22;;;;;;;19.15;79.36;99091.56;4429081;32;34342;-86
2022/06/10 01:42:47;;;;;;;7.43;4.47;;;;;;;19.26;78.68;99095.38;4428917;32;34024;-86
2022/06/10 01:45:20;;;;;;;6.15;4.22;;;;;;;19.33;78.49;99087.03;4428639;32;33747;-86
2022/06/10 01:47:55;;;;;;;10.65;6.40;;;;;;;19.61;76.82;99095.91;4429481;32;33249;-86
2022/06/10 01:50:31;;;;;;;6.50;3.70;;;;;;;19.29;77.99;99101.28;4426603;32;33519;-86
2022/06/10 01:53:04;;;;;;;8.10;4.75;;;;;;;19.37;77.82;99108.72;4421555;32;35011;-86
2022/06/10 01:55:37;;;;;;;7.40;4.57;;;;;;;19.44;77.65;99102.16;4427794;32;34049;-86
2022/06/10 01:58:08;;;;;;;7.80;4.25;;;;;;;19.16;78.65;99102.91;4427616;32;33468;-86
2022/06/10 02:00:40;;;;;;;8.48;4.47;;;;;;;19.12;79.50;99111.94;4428992;32;34419;-86
2022/06/10 02:03:16;;;;;;;7.03;4.43;;;;;;;19.35;77.96;99118.47;4447718;32;33684;-86
2022/06/10 02:05:48;;;;;;;7.35;4.57;;;;;;;19.57;76.93;99144.38;4461616;32;33648;-86
2022/06/10 02:08:21;;;;;;;6.22;3.75;;;;;;;19.31;78.08;99152.03;4469045;32;33442;-86
2022/06/10 02:10:53;;;;;;;6.43;3.80;;;;;;;19.06;78.87;99154.34;4464043;32;33707;-86
2022/06/10 02:13:25;;;;;;;6.70;4.20;;;;;;;19.18;78.60;99143.12;4464226;32;33628;-86
2022/06/10 02:15:59;;;;;;;6.37;4.15;;;;;;;18.86;80.38;99148.44;4464005;32;34177;-86
2022/06/10 02:18:35;;;;;;;7.68;4.90;;;;;;;18.89;80.70;99153.50;4471788;32;33400;-86
2022/06/10 02:21:07;;;;;;;8.60;4.65;;;;;;;19.25;78.91;99152.34;4479434;32;33667;-86
2022/06/10 02:23:45;;;;;;;8.02;4.93;;;;;;;19.22;78.79;99159.59;4483671;32;33327;-86
2022/06/10 02:26:17;;;;;;;8.57;5.03;;;;;;;19.45;77.96;99163.50;4479413;32;34457;-86
2022/06/10 02:28:50;;;;;;;7.15;4.97;;;;;;;19.31;78.69;99175.69;4479408;32;33520;-86
2022/06/10 02:31:21;;;;;;;8.57;4.43;;;;;;;19.71;76.17;99183.06;4479980;32;34569;-86
2022/06/10 02:33:51;;;;;;;7.40;4.53;;;;;;;19.63;76.22;99194.03;4464884;32;33097;-85
2022/06/10 02:36:25;;;;;;;7.82;4.93;;;;;;;19.43;77.71;99210.97;4477992;32;33739;-86
2022/06/10 02:38:59;;;;;;;6.68;4.43;;;;;;;19.52;77.96;99210.44;4485478;32;33455;-86
2022/06/10 02:41:37;;;;;;;6.97;4.05;;;;;;;19.75;76.64;99203.84;4479608;32;34355;-86
2022/06/10 02:44:12;;;;;;;8.13;5.07;;;;;;;19.72;77.00;99203.19;4479506;32;34435;-86
2022/06/10 02:46:46;;;;;;;7.97;4.55;;;;;;;19.81;76.48;99198.25;4479433;32;34649;-86
2022/06/10 02:49:17;;;;;;;8.15;4.70;;;;;;;19.68;77.22;99205.16;4463860;32;33300;-86
2022/06/10 02:51:48;;;;;;;9.43;5.47;;;;;;;19.49;78.03;99204.50;4467103;32;34481;-86
2022/06/10 02:54:19;;;;;;;9.25;4.90;;;;;;;19.43;78.51;99208.34;4484308;32;33991;-85
2022/06/10 02:56:48;;;;;;;9.05;5.15;;;;;;;19.29;79.28;99208.28;4479595;32;33532;-85
2022/06/10 03:02:22;;;;;;;9.77;4.82;;;;;;;19.07;80.07;99217.38;4479184;32;34027;-86
2022/06/10 03:05:03;;;;;;;8.77;5.68;;;;;;;18.89;81.62;99216.59;4479167;32;34040;-86
2022/06/10 03:07:49;;;;;;;8.60;5.40;;;;;;;18.82;82.29;99204.72;4479253;32;35511;-87
2022/06/10 03:10:24;;;;;;;8.50;5.15;;;;;;;19.06;81.53;99204.28;4479356;32;33430;-87
2022/06/10 03:13:09;;;;;;;8.70;5.65;;;;;;;19.11;80.30;99199.63;4485020;32;33527;-86
2022/06/10 03:15:48;;;;;;;7.97;4.80;;;;;;;19.12;80.95;99214.47;4485017;32;33992;-87
2022/06/10 03:18:23;;;;;;;8.05;5.60;;;;;;;19.07;80.46;99216.53;4479255;32;33063;-87
2022/06/10 03:20:59;;;;;;;13.82;5.65;;;;;;;18.89;81.83;99216.59;4479082;32;33288;-86
2022/06/10 03:23:36;;;;;;;9.13;6.00;;;;;;;19.14;80.29;99215.25;4474940;32;34344;-86
2022/06/10 03:26:10;;;;;;;9.20;6.18;;;;;;;19.14;80.41;99221.34;4479413;32;35162;-87
2022/06/10 03:28:43;;;;;;;7.60;4.78;;;;;;;19.23;80.04;99224.37;4479041;32;33985;-87
2022/06/10 03:31:16;;;;;;;9.02;5.65;;;;;;;19.29;79.82;99224.06;4484624;32;33303;-87
2022/06/10 03:33:48;;;;;;;8.32;5.35;;;;;;;19.42;79.49;99225.03;4479162;32;34746;-87
2022/06/10 03:36:23;;;;;;;7.97;5.00;;;;;;;19.57;78.11;99231.19;4479172;32;33551;-87
2022/06/10 03:38:53;;;;;;;9.65;5.93;;;;;;;19.40;79.31;99224.28;4481875;32;33802;-87
2022/06/10 03:41:26;;;;;;;8.52;5.72;;;;;;;19.30;79.79;99233.63;4479161;32;33989;-87
2022/06/10 03:43:56;;;;;;;9.45;6.15;;;;;;;19.56;78.69;99229.53;4478761;32;34629;-88
2022/06/10 03:46:27;;;;;;;9.32;6.45;;;;;;;19.34;79.36;99230.75;4484634;32;33287;-87
2022/06/10 03:48:56;;;;;;;9.48;6.55;;;;;;;19.18;79.95;99240.41;4479198;32;34052;-87
2022/06/10 03:51:26;;;;;;;8.45;5.57;;;;;;;18.97;81.33;99235.44;4480174;32;33159;-87
2022/06/10 03:53:56;;;;;;;10.13;6.18;;;;;;;19.13;80.66;99239.81;4466640;32;33109;-87
2022/06/10 03:56:26;;;;;;;7.82;5.25;;;;;;;19.32;80.26;99237.03;4464556;32;34472;-87
2022/06/10 03:58:54;;;;;;;9.07;5.35;;;;;;;19.51;78.92;99234.19;4469296;32;33689;-88
2022/06/10 04:01:23;;;;;;;8.38;5.70;;;;;;;19.09;80.30;99233.91;4477331;32;33109;-87
2022/06/10 04:03:52;;;;;;;12.68;5.78;;;;;;;19.15;80.10;99238.81;4478727;32;33946;-87
2022/06/10 04:06:21;;;;;;;8.95;5.43;;;;;;;19.09;80.47;99241.78;4478634;32;33893;-87
2022/06/10 04:09:17;;;;;;;8.48;5.10;;;;;;;18.84;81.60;99247.53;4479156;32;33914;-87
2022/06/10 04:11:45;;;;;;;11.35;6.78;;;;;;;18.99;81.56;99245.84;4478789;32;34069;-87
2022/06/10 04:14:15;;;;;;;9.40;5.85;;;;;;;18.99;81.42;99251.09;4484727;32;34140;-87
2022/06/10 04:16:43;;;;;;;9.40;5.75;;;;;;;18.83;82.10;99255.53;4478637;32;34765;-88
2022/06/10 04:19:13;;;;;;;8.88;6.20;;;;;;;18.94;81.76;99254.00;4478919;32;34483;-88
2022/06/10 04:21:43;;;;;;;9.45;6.05;;;;;;;18.87;82.52;99242.12;4478812;32;34128;-88
2022/06/10 04:24:13;;;;;;;8.73;5.53;;;;;;;18.96;81.62;99238.97;4474812;32;34490;-87
2022/06/10 04:26:42;;;;;;;9.63;5.70;;;;;;;18.67;82.91;99243.16;4480472;32;34235;-88
2022/06/10 04:29:13;;;;;;;9.40;5.78;;;;;;;18.85;82.73;99257.13;4484050;32;34221;-88
2022/06/10 04:31:43;;;;;;;9.35;5.97;;;;;;;19.18;81.00;99256.19;4478229;32;33612;-87
2022/06/10 04:34:12;;;;;;;9.27;6.15;;;;;;;19.11;81.17;99253.06;4468924;32;34670;-88
2022/06/10 04:36:41;;;;;;;8.35;4.70;;;;;;;19.43;80.00;99266.22;4479012;32;34797;-88
2022/06/10 04:39:11;;;;;;;10.20;5.37;;;;;;;19.61;78.37;99265.16;4478778;32;33678;-88
2022/06/10 04:41:41;;;;;;;9.60;5.50;;;;;;;19.48;79.02;99269.41;4484240;32;34225;-88
2022/06/10 04:44:10;;;;;;;8.15;4.65;;;;;;;19.66;78.23;99267.50;4478867;31;33863;-88
2022/06/10 04:46:46;;;;;;;8.48;4.97;;;;;;;19.86;76.53;99278.72;4478956;32;34027;-88
2022/06/10 04:49:15;;;;;;;8.63;4.95;;;;;;;19.72;75.88;99276.91;4478916;32;33643;-88
2022/06/10 04:51:44;;;;;;;7.80;4.47;;;;;;;19.53;77.54;99277.91;4477173;32;32847;-88
2022/06/10 04:54:13;;;;;;;8.57;5.12;;;;;;;19.95;76.08;99271.13;4470794;32;34673;-89
2022/06/10 04:56:43;;;;;;;7.95;5.62;;;;;;;20.57;73.35;99283.31;4465565;32;34346;-88
2022/06/10 04:59:12;;;;;;;6.78;3.83;;;;;;;21.05;71.35;99289.12;4462636;32;33389;-89
2022/06/10 05:01:44;;;;;;;5.95;3.97;;;;;;;21.64;69.84;99287.09;4462617;32;33361;-88
2022/06/10 05:04:13;;;;;;;6.87;4.22;;;;;;;22.28;66.17;99289.94;4463118;32;33832;-88
2022/06/10 05:06:42;;;;;;;5.12;3.05;;;;;;;22.11;65.75;99293.69;4462613;32;34047;-89
2022/06/10 05:09:18;;;;;;;5.65;3.17;;;;;;;21.58;68.80;99294.59;4481442;32;33792;-88
2022/06/10 05:11:48;;;;;;;5.32;3.03;;;;;;;22.04;66.82;99289.78;4478258;32;33238;-89
2022/06/10 05:14:16;;;;;;;6.12;3.67;;;;;;;21.94;67.02;99293.97;4478324;32;33903;-88
2022/06/10 05:16:45;;;;;;;6.12;3.62;;;;;;;22.21;66.68;99288.66;4478106;32;33764;-88
2022/06/10 05:19:14;;;;;;;5.75;3.33;;;;;;;22.29;66.37;99293.41;4478110;32;34037;-89
2022/06/10 05:21:43;;;;;;;5.00;3.00;;;;;;;22.11;66.06;99291.06;4483801;32;34195;-89
2022/06/10 05:24:12;;;;;;;5.00;2.78;;;;;;;21.32;69.42;99294.44;4478165;32;33395;-88
2022/06/10 05:26:40;;;;;;;5.90;3.80;;;;;;;21.57;69.18;99301.66;4478062;32;33957;-89
2022/06/10 05:29:11;;;;;;;5.55;3.10;;;;;;;21.74;67.31;99311.94;4478083;32;33838;-89
2022/06/10 05:31:40;;;;;;;4.82;2.90;;;;;;;21.91;68.38;99307.37;4477629;32;33149;-89
2022/06/10 05:36:56;;;;;;;6.30;3.58;;;;;;;21.88;67.96;99320.78;4483550;32;34553;-89
2022/06/10 05:39:25;;;;;;;5.18;2.97;;;;;;;21.85;68.53;99324.47;4478064;32;35181;-89
2022/06/10 05:42:06;;;;;;;5.62;3.30;;;;;;;21.89;66.89;99323.34;4478658;32;33961;-89
2022/06/10 05:44:37;;;;;;;;;;;;;;;21.78;67.82;99332.91;4480525;32;34696;-89
2022/06/10 05:47:07;;;;;;;6.40;2.95;;;;;;;21.78;69.53;99346.09;4479636;32;33937;-89
2022/06/10 05:49:41;;;;;;;3.50;2.53;;;;;;;21.85;67.21;99331.56;4484398;32;33794;-89
2022/06/10 05:52:11;;;;;;;6.57;3.67;;;;;;;21.84;68.48;99332.47;4483932;32;33169;-88
2022/06/10 05:54:42;;;;;;;6.07;3.37;;;;;;;21.83;68.07;99336.94;4478678;32;35805;-88
2022/06/10 05:57:15;;;;;;;6.22;3.47;;;;;;;21.82;68.22;99340.53;4478952;32;34887;-88
2022/06/10 05:59:47;;;;;;;5.78;3.37;;;;;;;21.76;68.77;99340.06;4479809;32;33917;-88
2022/06/10 06:02:15;;;;;;;8.48;4.45;;;;;;;21.60;68.72;99351.63;4479900;32;32944;-88
2022/06/10 06:04:45;;;;;;;5.85;3.30;;;;;;;21.54;69.10;99353.81;4485456;32;34626;-89
2022/06/10 06:07:17;;;;;;;5.70;3.40;;;;;;;21.58;68.94;99360.59;4480129;32;33809;-88
2022/06/10 06:09:47;;;;;;;6.68;3.55;;;;;;;21.34;70.31;99355.88;4479616;32;33618;-88
2022/06/10 06:12:16;;;;;;;5.82;3.42;;;;;;;21.35;68.95;99362.84;4480041;32;33386;-88
2022/06/10 06:14:46;;;;;;;5.80;3.72;;;;;;;21.39;69.73;99358.25;4479857;32;33974;-88
2022/06/10 06:17:16;;;;;;;7.65;4.32;;;;;;;21.18;70.86;99366.53;4487329;32;34213;-88
2022/06/10 06:19:44;;;;;;;6.68;3.90;;;;;;;21.09;71.10;99353.91;4480050;32;33658;-88
2022/06/10 06:22:13;;;;;;;5.68;2.90;;;;;;;21.12;71.01;99360.78;4478640;32;33369;-88
2022/06/10 06:24:42;;;;;;;5.75;3.50;;;;;;;21.26;71.17;99360.78;4479133;32;34172;-88
2022/06/10 06:27:13;;;;;;;6.50;3.58;;;;;;;20.94;71.06;99366.25;4479306;32;33890;-88
2022/06/10 06:29:43;;;;;;;6.55;3.45;;;;;;;20.94;71.61;99376.81;4484722;32;33878;-89
2022/06/10 06:32:14;;;;;;;5.87;3.30;;;;;;;20.87;71.60;99363.13;4474747;32;33908;-88
2022/06/10 06:34:42;;;;;;;5.43;2.70;;;;;;;21.03;71.54;99365.69;4471469;32;33389;-89
2022/06/10 06:37:15;;;;;;;4.65;2.87;;;;;;;21.40;70.53;99365.22;4479340;32;34659;-88
2022/06/10 06:39:43;;;;;;;5.45;2.95;;;;;;;21.44;70.64;99374.66;4479610;32;34597;-88
2022/06/10 06:42:12;;;;;;;5.20;3.20;;;;;;;21.58;70.36;99372.00;4484683;32;33116;-88
2022/06/10 06:44:43;;;;;;;4.97;3.08;;;;;;;21.81;68.87;99372.31;4479201;32;34533;-88
2022/06/10 06:47:33;;;;;;;4.80;3.03;;;;;;;21.71;69.75;99382.59;4476235;32;34803;-88
2022/06/10 06:50:24;;;;;;;4.68;2.55;;;;;;;21.73;69.37;99386.00;4478879;32;34100;-88
2022/06/10 06:52:54;;;;;;;5.40;3.05;;;;;;;22.03;67.80;99388.44;4477724;32;32954;-86
2022/06/10 06:55:31;;;;;;;3.97;2.37;;;;;;;21.89;68.98;99378.78;4470255;32;33761;-86
2022/06/10 06:58:01;;;;;;;4.15;2.40;;;;;;;21.94;69.22;99389.06;4476317;32;33716;-85
2022/06/10 07:00:31;;;;;;;5.47;3.33;;;;;;;22.22;68.02;99374.91;4470569;32;33978;-86
2022/06/10 07:03:01;;;;;;;5.90;3.65;;;;;;;22.11;68.39;99390.59;4473743;32;32930;-86
2022/06/10 07:05:31;;;;;;;5.05;3.25;;;;;;;22.36;67.67;99382.75;4463881;32;34202;-86
2022/06/10 07:08:00;;;;;;;4.53;2.87;;;;;;;22.31;68.55;99378.72;4474905;32;33978;-86
2022/06/10 07:10:29;;;;;;;6.10;2.53;;;;;;;22.70;66.45;99385.75;4479395;32;33968;-86
2022/06/10 07:12:58;;;;;;;6.30;3.85;;;;;;;22.45;66.83;99389.22;4469981;32;32950;-86
2022/06/10 07:15:27;;;;;;;4.32;2.87;;;;;;;22.95;65.98;99387.59;4479391;32;34789;-86
2022/06/10 07:17:57;;;;;;;4.40;2.15;;;;;;;23.00;65.51;99390.78;4479516;32;33901;-86
2022/06/10 07:20:30;;;;;;;5.07;2.70;;;;;;;23.26;64.66;99385.44;4479120;32;33786;-86
2022/06/10 07:22:59;;;;;;;4.65;2.30;;;;;;;23.55;65.01;99385.19;4479084;32;34284;-87
2022/06/10 07:25:30;;;;;;;4.10;2.20;;;;;;;23.75;64.33;99386.41;4477533;32;33585;-87
2022/06/10 07:27:59;;;;;;;;;;;;;;;23.92;62.45;99390.47;4483848;32;34051;-86
2022/06/10 07:30:30;;;;;;;3.67;2.20;;;;;;;24.05;63.37;99388.63;4473259;32;33072;-86
2022/06/10 07:32:59;;;;;;;4.15;2.20;;;;;;;24.08;62.33;99393.69;4471894;32;33433;-86
2022/06/10 07:35:30;;;;;;;4.20;2.40;;;;;;;24.10;61.38;99386.50;4478671;32;33875;-87
2022/06/10 07:37:59;;;;;;;;;;;;;;;23.82;62.89;99391.19;4482102;32;33808;-87
2022/06/10 07:43:36;;;;;;;3.28;1.80;;;;;;;23.95;61.26;99379.69;4480082;32;33993;-87
2022/06/10 07:46:06;;;;;;;2.83;1.40;;;;;;;24.10;57.36;99389.13;4478238;32;33968;-88
2022/06/10 07:48:35;;;;;;;1.55;1.00;;;;;;;23.99;56.29;99384.66;4477432;32;34825;-86
2022/06/10 07:51:06;;;;;;;2.87;1.52;;;;;;;23.98;57.30;99388.25;4477513;32;34130;-87
2022/06/10 07:53:35;;;;;;;1.75;1.02;;;;;;;24.58;55.11;99390.91;4478240;32;34278;-87
2022/06/10 07:56:05;;;;;;;2.50;1.60;;;;;;;24.64;54.41;99385.13;4474906;32;34480;-86
2022/06/10 07:58:33;;;;;;;1.48;0.95;;;;;;;24.98;55.39;99391.31;4471826;32;34635;-86
2022/06/10 08:01:02;;;;;;;2.45;1.33;;;;;;;24.83;53.95;99400.47;4475040;32;34507;-87
2022/06/10 08:03:33;;;;;;;2.35;1.50;;;;;;;24.74;55.26;99401.19;4464837;32;83101;-87
2022/06/10 08:06:02;;;;;;;3.95;1.92;;;;;;;25.17;53.19;99406.69;4463708;32;34515;-87
2022/06/10 08:08:33;;;;;;;5.78;1.70;;;;;;;24.98;56.91;99406.41;4482260;32;34756;-87
2022/06/10 08:11:02;;;;;;;2.67;1.60;;;;;;;24.77;57.38;99395.66;4477381;32;32930;-87
2022/06/10 08:13:30;;;;;;;3.22;1.42;;;;;;;24.84;55.58;99399.50;4477099;32;33582;-87
2022/06/10 08:15:59;;;;;;;3.55;1.90;;;;;;;24.84;54.18;99408.34;4469638;31;33948;-87
2022/06/10 08:18:31;;;;;;;3.25;1.23;;;;;;;25.14;56.10;99406.91;4476961;32;33657;-87
2022/06/10 08:23:49;;;;;;;3.33;1.60;;;;;;;24.92;53.33;99411.22;4482820;32;33797;-87
2022/06/10 08:26:19;;;;;;;2.65;1.70;;;;;;;24.94;53.26;99408.47;4477000;32;33013;-87
2022/06/10 08:28:48;;;;;;;9.25;2.40;;;;;;;25.00;52.24;99410.62;4478379;32;33896;-90
2022/06/10 08:31:18;;;;;;;2.67;1.52;;;;;;;24.83;54.61;99419.88;4477465;32;33551;-87
2022/06/10 08:33:46;;;;;;;2.95;1.45;;;;;;;24.73;52.90;99410.97;4475326;32;33326;-87
2022/06/10 08:36:15;;;;;;;2.37;1.35;;;;;;;24.81;54.12;99424.47;4484293;32;33483;-87
2022/06/10 08:38:52;;;;;;;2.72;1.52;;;;;;;25.00;53.38;99417.75;4474424;32;35083;-87
2022/06/10 08:41:28;;;;;;;3.67;1.73;;;;;;;25.17;53.06;99421.75;4476185;32;34012;-87
2022/06/10 08:44:08;;;;;;;1.87;1.20;;;;;;;25.13;51.19;99418.50;4478361;32;33783;-87
2022/06/10 08:47:16;;;;;;;3.47;1.80;;;;;;;25.33;51.22;99424.94;4478268;32;33563;-87
2022/06/10 08:49:57;;;;;;;2.95;1.83;;;;;;;25.09;55.63;99433.81;4463912;32;33656;-87
2022/06/10 08:52:34;;;;;;;4.40;1.98;;;;;;;25.16;56.01;99420.91;4478050;32;33981;-87
2022/06/10 08:55:13;;;;;;;3.55;2.00;;;;;;;25.31;56.21;99426.84;4469278;32;33497;-88
2022/06/10 08:57:45;;;;;;;4.93;2.22;;;;;;;25.17;56.18;99427.94;4482752;32;33420;-88
2022/06/10 09:00:17;;;;;;;;;;;;;;;25.28;57.19;99427.09;4468819;32;33584;-87
2022/06/10 09:02:50;;;;;;;3.45;2.17;;;;;;;25.31;56.16;99427.69;4474493;32;34332;-87
2022/06/10 09:05:23;;;;;;;3.90;2.10;;;;;;;24.96;58.59;99425.12;4477317;32;33111;-87
2022/06/10 09:07:53;;;;;;;4.78;2.12;;;;;;;25.46;56.38;99438.91;4475446;32;33930;-87
2022/06/10 09:10:24;;;;;;;;;;;;;;;25.22;56.94;99433.72;4470066;32;34067;-87
2022/06/10 09:13:10;;;;;;;4.95;2.47;;;;;;;25.29;57.77;99440.25;4483057;32;34096;-87
2022/06/10 09:15:43;;;;;;;3.33;1.95;;;;;;;24.85;58.72;99439.19;4477009;32;33387;-87
2022/06/10 09:18:17;;;;;;;4.20;2.05;;;;;;;24.75;60.39;99437.37;4474025;32;33796;-87
2022/06/10 09:20:50;;;;;;;4.28;2.50;;;;;;;24.82;60.50;99442.09;4477488;32;34720;-87
2022/06/10 09:23:31;;;;;;;5.65;2.78;;;;;;;25.02;58.94;99432.59;4474504;32;34002;-87
2022/06/10 09:26:08;;;;;;;5.35;2.83;;;;;;;24.83;60.52;99429.66;4479089;32;34022;-88
2022/06/10 09:28:38;;;;;;;4.78;2.55;;;;;;;24.95;60.32;99433.19;4479783;32;33719;-88
2022/06/10 09:31:12;;;;;;;5.20;2.53;;;;;;;24.95;60.65;99434.03;4484729;32;34424;-88
2022/06/10 09:33:47;;;;;;;5.60;2.28;;;;;;;25.01;59.74;99436.22;4475697;32;34219;-87
2022/06/10 09:36:21;;;;;;;5.72;3.08;;;;;;;24.97;60.35;99437.41;4467856;31;32120;-87
2022/06/10 09:38:53;;;;;;;4.18;2.20;;;;;;;25.07;59.81;99434.91;4471357;31;32557;-87
2022/06/10 09:41:32;;;;;;;5.28;2.53;;;;;;;25.05;59.36;99435.00;4473466;31;32836;-87
2022/06/10 09:44:07;;;;;;;4.32;2.40;;;;;;;25.50;61.15;99427.09;4481890;31;33561;-88
2022/06/10 09:47:00;;;;;;;5.57;2.53;;;;;;;25.98;56.49;99431.28;4478739;31;33294;-87
2022/06/10 09:49:43;;;;;;;4.82;2.75;;;;;;;25.86;57.60;99432.28;4479993;31;33570;-88
2022/06/10 09:52:19;;;;;;;4.72;2.22;;;;;;;26.12;56.45;99430.13;4476748;31;34845;-88
2022/06/10 09:55:03;;;;;;;3.67;2.30;;;;;;;26.38;55.68;99434.12;4476666;31;33097;-89
2022/06/10 09:58:05;;;;;;;3.55;1.87;;;;;;;26.28;55.45;99437.72;4473655;31;34159;-88
2022/06/10 10:00:38;;;;;;;3.83;2.12;;;;;;;26.13;57.29;99434.50;4474127;31;33688;-88
2022/06/10 10:03:21;;;;;;;5.00;2.33;;;;;;;26.15;56.22;99429.91;4481217;31;33906;-88
2022/06/10 10:06:02;;;;;;;3.50;2.08;;;;;;;26.50;53.77;99440.25;4477500;31;34478;-88
2022/06/10 10:08:38;;;;;;;4.18;2.30;;;;;;;26.31;56.77;99433.00;4476680;31;32879;-88
2022/06/10 10:11:12;;;;;;;3.47;1.90;;;;;;;26.60;53.73;99432.38;4479727;31;33948;-90
2022/06/10 10:13:51;;;;;;;5.95;2.60;;;;;;;26.35;54.96;99441.53;4469086;31;33290;-88
2022/06/10 10:16:28;;;;;;;3.17;2.08;;;;;;;26.56;53.38;99434.47;4475949;31;33923;-88
2022/06/10 10:19:15;;;;;;;2.70;1.67;;;;;;;26.56;54.67;99437.13;4474635;31;33220;-88
2022/06/10 10:21:50;;;;;;;3.72;2.10;;;;;;;26.54;53.79;99435.56;4485680;31;33949;-88
2022/06/10 10:24:26;;;;;;;2.95;1.23;;;;;;;26.87;52.86;99454.97;4484190;31;34862;-89
2022/06/10 10:26:58;;;;;;;3.60;2.15;;;;;;;26.66;52.92;99449.66;4470590;31;32731;-88
2022/06/10 10:29:32;;;;;;;4.32;2.03;;;;;;;26.50;53.57;99445.56;4475175;31;33500;-89
2022/06/10 10:32:03;;;;;;;4.97;2.25;;;;;;;26.52;54.11;99442.81;4475035;31;34685;-90
2022/06/10 10:34:36;;;;;;;5.35;2.83;;;;;;;26.70;54.14;99449.28;4477735;31;34675;-89
2022/06/10 10:37:07;;;;;;;3.55;2.05;;;;;;;26.50;55.55;99445.56;4481097;31;36524;-89
2022/06/10 10:39:39;;;;;;;3.83;2.22;;;;;;;26.82;55.54;99444.75;4484136;31;33825;-89
2022/06/10 10:42:13;;;;;;;;;;;;;;;26.65;55.27;99446.16;4487995;31;33683;-89
2022/06/10 10:44:46;;;;;;;5.22;2.12;;;;;;;26.61;54.81;99444.72;4478176;31;34922;-89
2022/06/10 10:47:18;;;;;;;3.75;2.03;;;;;;;26.82;54.27;99447.41;4475552;31;34437;-88
2022/06/10 10:49:50;;;;;;;4.10;2.00;;;;;;;26.80;53.75;99444.87;4475138;31;33297;-88
2022/06/10 10:52:44;;;;;;;5.05;2.15;;;;;;;26.66;54.10;99442.53;4486620;31;34624;-89
2022/06/10 10:55:25;;;;;;;4.93;2.12;;;;;;;26.80;53.39;99449.34;4479991;31;34984;-89
2022/06/10 10:58:04;;;;;;;4.20;1.92;;;;;;;26.76;53.51;99439.94;4476518;31;33578;-89
2022/06/10 11:00:38;;;;;;;3.22;1.77;;;;;;;26.77;53.82;99445.13;4472913;31;31307;-89
2022/06/10 11:03:07;;;;;;;4.12;2.10;;;;;;;27.16;54.05;99444.50;4472624;31;33945;-89
2022/06/10 11:05:38;;;;;;;3.92;2.33;;;;;;;27.11;53.10;99442.25;4470418;31;33590;-88
2022/06/10 11:08:20;;;;;;;3.55;2.12;;;;;;;27.40;53.70;99433.56;4474829;31;32628;-89
2022/06/10 11:11:17;;;;;;;3.75;2.20;;;;;;;27.43;51.59;99428.81;4483777;31;33444;-89
2022/06/10 11:13:50;;;;;;;4.12;1.92;;;;;;;27.13;52.51;99434.94;4480555;31;33719;-88
2022/06/10 11:16:41;;;;;;;4.22;2.58;;;;;;;26.91;52.04;99425.31;4479604;31;33562;-88
2022/06/10 11:19:15;;;;;;;3.40;1.60;;;;;;;26.97;53.21;99431.94;4471089;31;34719;-89
2022/06/10 11:22:10;;;;;;;3.08;1.60;;;;;;;27.20;53.04;99432.66;4474734;31;32954;-88
2022/06/10 11:24:41;;;;;;;3.45;1.70;;;;;;;27.19;52.24;99430.97;4471401;31;33742;-88
2022/06/10 11:27:29;;;;;;;3.83;1.90;;;;;;;27.32;52.01;99433.41;4476782;31;33601;-88
2022/06/10 11:30:16;;;;;;;4.47;2.50;;;;;;;27.11;52.10;99434.28;4474883;31;33890;-89
2022/06/10 11:32:58;;;;;;;4.43;2.50;;;;;;;27.31;52.32;99421.06;4470633;31;32896;-88
2022/06/10 11:35:31;;;;;;;3.97;1.83;;;;;;;27.46;51.94;99430.37;4474182;31;34055;-89
2022/06/10 11:38:03;;;;;;;6.12;1.77;;;;;;;27.77;50.55;99422.34;4475597;31;34802;-88
2022/06/10 11:40:40;;;;;;;4.12;1.92;;;;;;;27.63;50.67;99418.22;4473204;31;34423;-88
2022/06/10 11:43:17;;;;;;;6.25;2.85;;;;;;;27.92;50.73;99420.16;4472023;31;34121;-88
2022/06/10 11:45:49;;;;;;;4.20;1.95;;;;;;;27.84;49.85;99419.03;4478342;31;33573;-89
2022/06/10 11:48:31;;;;;;;7.05;3.53;;;;;;;27.69;50.28;99415.03;4476756;31;34412;-88
2022/06/10 11:51:00;;;;;;;;;;;;;;;28.03;50.15;99428.87;4474537;31;34001;-89
2022/06/10 11:53:33;;;;;;;;;;;;;;;28.22;48.48;99425.41;4481007;31;31949;-88
2022/06/10 12:01:33;;;;;;;;;;;;;;;28.15;49.74;99418.06;4474426;31;32797;-88
2022/06/10 12:04:04;;;;;;;;;;;;;;;28.33;49.82;99413.72;4475294;31;34571;-88
2022/06/10 12:06:34;;;;;;;;;;;;;;;28.46;49.57;99410.78;4477698;31;34670;-89
2022/06/10 12:09:04;;;;;;;;;;;;;;;28.81;47.93;99414.69;4480885;31;34251;-89
2022/06/10 12:11:34;;;;;;;;;;;;;;;28.76;47.29;99396.44;4475936;31;33794;-88
2022/06/10 12:14:12;;;;;;;;;;;;;;;28.42;47.54;99396.03;4475827;31;33390;-88
2022/06/10 12:16:44;;;;;;;;;;;;;;;28.44;46.92;99399.37;4471682;31;34556;-88
2022/06/10 12:19:16;;;;;;;;;;;;;;;28.54;47.52;99386.94;4472036;31;34888;-88
2022/06/10 12:21:44;;;;;;;;;;;;;;;28.73;46.81;99380.72;4471449;31;34365;-88
2022/06/10 12:24:14;;;;;;;;;;;;;;;28.71;46.64;99390.69;4478212;31;33659;-88